Time;durP1;ratioP1;P1;durP2;ratioP2;P2;SDS_P1;SDS_P2;PMS_P1;PMS_P2;Temp;Humidity;BMP_temperature;BMP_pressure;BME280_temperature;BME280_humidity;BME280_pressure;Samples;Min_cycle;Max_cycle;Signal;HPM_P1;HPM_P2
2022/04/09 00:00:13;;;;;;;9.13;2.77;;;;;;;;;;5035330;28;20176;-65
2022/04/09 00:02:39;;;;;;;8.27;3.10;;;;;;;;;;5034044;28;20639;-64
2022/04/09 00:05:05;;;;;;;12.53;3.17;;;;;;;;;;5016845;28;20344;-65
2022/04/09 00:07:32;;;;;;;13.57;3.20;;;;;;;;;;5016936;28;20190;-64
2022/04/09 00:09:57;;;;;;;10.57;3.17;;;;;;;;;;5035198;28;20393;-65
2022/04/09 00:12:23;;;;;;;14.50;4.30;;;;;;;;;;5035059;28;20292;-64
2022/04/09 00:14:49;;;;;;;13.63;4.03;;;;;;;;;;5035057;28;20175;-64
2022/04/09 00:17:15;;;;;;;14.70;3.93;;;;;;;;;;5034331;28;20426;-62
2022/04/09 00:19:41;;;;;;;9.40;3.17;;;;;;;;;;5034102;28;20237;-65
2022/04/09 00:22:07;;;;;;;13.50;3.57;;;;;;;;;;5034543;28;20179;-64
2022/04/09 00:24:34;;;;;;;11.90;4.23;;;;;;;;;;5017034;28;20181;-64
2022/04/09 00:27:00;;;;;;;12.23;4.07;;;;;;;;;;5016893;28;20183;-64
2022/04/09 00:29:26;;;;;;;9.67;3.57;;;;;;;;;;5034022;28;20715;-64
2022/04/09 00:31:52;;;;;;;11.57;3.90;;;;;;;;;;5034162;28;20690;-66
2022/04/09 00:34:18;;;;;;;7.63;3.43;;;;;;;;;;5035117;28;20179;-65
2022/04/09 00:36:44;;;;;;;14.07;4.97;;;;;;;;;;5038036;28;20178;-65
2022/04/09 00:39:10;;;;;;;15.87;5.10;;;;;;;;;;5038319;28;20573;-65
2022/04/09 00:41:40;;;;;;;10.17;3.80;;;;;;;;;;5038956;28;20552;-65
2022/04/09 00:44:15;;;;;;;11.77;4.40;;;;;;;;;;5020826;28;20639;-64
2022/04/09 00:46:41;;;;;;;16.63;4.50;;;;;;;;;;5038673;28;20171;-64
2022/04/09 00:49:07;;;;;;;15.33;4.53;;;;;;;;;;5020447;28;20210;-65
2022/04/09 00:51:35;;;;;;;12.00;4.27;;;;;;;;;;5038301;28;20598;-64
2022/04/09 00:54:01;;;;;;;10.63;4.70;;;;;;;;;;5020496;28;20278;-64
2022/04/09 00:56:28;;;;;;;12.20;4.40;;;;;;;;;;5038035;28;20180;-66
2022/04/09 00:58:55;;;;;;;14.50;4.77;;;;;;;;;;5038070;28;20302;-68
2022/04/09 01:01:22;;;;;;;13.00;4.17;;;;;;;;;;5038452;28;20640;-65
2022/04/09 01:03:49;;;;;;;13.23;5.30;;;;;;;;;;5037865;28;20226;-65
2022/04/09 01:06:15;;;;;;;13.00;4.27;;;;;;;;;;5020108;28;20330;-65
2022/04/09 01:08:41;;;;;;;12.00;3.87;;;;;;;;;;5037956;28;20239;-65
2022/04/09 01:11:08;;;;;;;12.13;4.43;;;;;;;;;;5038014;28;20314;-65
2022/04/09 01:13:35;;;;;;;15.13;4.03;;;;;;;;;;5020087;28;20175;-66
2022/04/09 01:16:01;;;;;;;16.70;4.60;;;;;;;;;;5037787;28;20644;-64
2022/04/09 01:18:27;;;;;;;12.53;3.90;;;;;;;;;;5019862;28;20207;-64
2022/04/09 01:20:57;;;;;;;13.43;4.07;;;;;;;;;;5037924;28;20662;-65
2022/04/09 01:23:23;;;;;;;15.30;5.00;;;;;;;;;;5019664;28;20183;-64
2022/04/09 01:25:48;;;;;;;10.23;4.40;;;;;;;;;;5037926;28;20179;-64
2022/04/09 01:28:15;;;;;;;10.20;3.83;;;;;;;;;;5020101;28;20221;-65
2022/04/09 01:30:41;;;;;;;12.93;4.00;;;;;;;;;;5037564;28;20187;-65
2022/04/09 01:33:07;;;;;;;15.30;4.87;;;;;;;;;;5037640;28;20207;-64
2022/04/09 01:35:33;;;;;;;20.10;5.03;;;;;;;;;;5019726;28;20179;-65
2022/04/09 01:37:59;;;;;;;19.53;4.57;;;;;;;;;;5037475;28;20680;-65
2022/04/09 01:40:25;;;;;;;23.90;5.30;;;;;;;;;;5037917;28;20534;-63
2022/04/09 01:42:51;;;;;;;14.97;4.30;;;;;;;;;;5019219;28;20646;-64
2022/04/09 01:45:16;;;;;;;22.47;5.73;;;;;;;;;;5036598;28;20240;-64
2022/04/09 01:47:42;;;;;;;15.73;3.97;;;;;;;;;;5019394;28;20198;-64
2022/04/09 01:50:10;;;;;;;14.87;4.93;;;;;;;;;;5019090;28;20647;-65
2022/04/09 01:52:36;;;;;;;15.57;4.23;;;;;;;;;;5036829;28;20678;-65
2022/04/09 01:55:02;;;;;;;14.90;5.33;;;;;;;;;;5036828;28;20175;-65
2022/04/09 01:57:27;;;;;;;13.47;4.27;;;;;;;;;;5036857;28;20175;-65
2022/04/09 01:59:53;;;;;;;16.90;4.45;;;;;;;;;;5036634;28;20286;-64
2022/04/09 02:02:19;;;;;;;24.00;5.17;;;;;;;;;;5037126;28;20241;-66
2022/04/09 02:04:45;;;;;;;17.70;4.33;;;;;;;;;;5019240;28;20187;-66
2022/04/09 02:07:12;;;;;;;12.63;4.13;;;;;;;;;;5036777;28;20179;-65
2022/04/09 02:09:38;;;;;;;10.80;4.67;;;;;;;;;;5036681;28;20222;-65
2022/04/09 02:12:04;;;;;;;10.50;3.90;;;;;;;;;;5036617;28;20327;-64
2022/04/09 02:14:30;;;;;;;12.20;4.03;;;;;;;;;;5018961;28;20182;-64
2022/04/09 02:16:56;;;;;;;18.93;4.60;;;;;;;;;;5036478;28;20176;-65
2022/04/09 02:19:22;;;;;;;15.37;4.57;;;;;;;;;;5036569;28;20289;-68
2022/04/09 02:21:48;;;;;;;16.87;4.17;;;;;;;;;;5036715;28;20183;-63
2022/04/09 02:24:14;;;;;;;16.80;4.73;;;;;;;;;;5035854;28;20226;-65
2022/04/09 02:26:40;;;;;;;13.07;4.17;;;;;;;;;;5036303;28;20631;-64
2022/04/09 02:29:06;;;;;;;15.80;4.30;;;;;;;;;;5035716;28;20624;-66
2022/04/09 02:31:32;;;;;;;12.10;3.80;;;;;;;;;;5035652;28;20203;-65
2022/04/09 02:33:58;;;;;;;13.33;4.60;;;;;;;;;;5036155;28;20179;-65
2022/04/09 02:36:24;;;;;;;22.20;4.23;;;;;;;;;;5018063;28;20183;-65
2022/04/09 02:38:50;;;;;;;12.30;4.10;;;;;;;;;;5035684;28;20227;-65
2022/04/09 02:41:16;;;;;;;11.13;4.03;;;;;;;;;;5017729;28;20274;-65
2022/04/09 02:43:43;;;;;;;16.60;4.03;;;;;;;;;;5035563;28;20917;-66
2022/04/09 02:46:09;;;;;;;12.70;3.70;;;;;;;;;;5036176;28;20202;-66
2022/04/09 02:48:35;;;;;;;14.47;4.13;;;;;;;;;;5017963;28;20441;-63
2022/04/09 02:51:01;;;;;;;16.17;4.13;;;;;;;;;;5035665;28;20179;-65
2022/04/09 02:53:27;;;;;;;15.97;4.30;;;;;;;;;;5035403;28;20269;-65
2022/04/09 02:55:54;;;;;;;15.00;3.80;;;;;;;;;;5035443;28;20175;-65
2022/04/09 02:58:19;;;;;;;11.80;4.10;;;;;;;;;;5033782;28;20310;-65
2022/04/09 03:00:45;;;;;;;16.50;4.30;;;;;;;;;;5034904;28;20461;-65
2022/04/09 03:03:11;;;;;;;12.87;4.63;;;;;;;;;;5035235;28;20175;-64
2022/04/09 03:05:37;;;;;;;14.47;4.10;;;;;;;;;;5017398;28;20263;-66
2022/04/09 03:08:03;;;;;;;20.17;4.60;;;;;;;;;;5035089;28;20199;-65
2022/04/09 03:10:29;;;;;;;14.40;4.47;;;;;;;;;;5034851;28;20262;-65
2022/04/09 03:12:56;;;;;;;16.53;4.60;;;;;;;;;;5034612;28;20310;-65
2022/04/09 03:15:22;;;;;;;14.00;4.40;;;;;;;;;;5017044;28;20187;-65
2022/04/09 03:17:48;;;;;;;13.17;4.37;;;;;;;;;;5034604;28;20175;-65
2022/04/09 03:20:14;;;;;;;14.90;4.03;;;;;;;;;;5035038;28;20171;-65
2022/04/09 03:22:47;;;;;;;15.83;5.57;;;;;;;;;;5034871;28;20212;-65
2022/04/09 03:25:13;;;;;;;20.07;5.43;;;;;;;;;;5034756;28;20171;-66
2022/04/09 03:27:39;;;;;;;14.00;4.67;;;;;;;;;;5034653;28;20258;-65
2022/04/09 03:30:06;;;;;;;10.37;3.60;;;;;;;;;;5017459;28;20426;-64
2022/04/09 03:32:32;;;;;;;14.13;3.97;;;;;;;;;;5034874;28;20272;-66
2022/04/09 03:34:58;;;;;;;15.33;4.70;;;;;;;;;;5016944;28;20183;-64
2022/04/09 03:37:24;;;;;;;12.30;4.27;;;;;;;;;;5035044;28;20179;-65
2022/04/09 03:39:50;;;;;;;15.43;4.73;;;;;;;;;;5034468;28;20249;-64
2022/04/09 03:42:16;;;;;;;15.57;4.60;;;;;;;;;;5017838;28;20194;-64
2022/04/09 03:44:42;;;;;;;19.33;5.03;;;;;;;;;;5017215;28;20210;-65
2022/04/09 03:47:08;;;;;;;16.37;4.00;;;;;;;;;;5034501;28;20417;-66
2022/04/09 03:49:34;;;;;;;18.07;4.40;;;;;;;;;;5016774;28;20205;-66
2022/04/09 03:52:00;;;;;;;18.30;4.13;;;;;;;;;;5034765;28;20548;-65
2022/04/09 03:54:27;;;;;;;13.80;4.23;;;;;;;;;;5034643;28;20178;-65
2022/04/09 03:56:53;;;;;;;14.07;4.10;;;;;;;;;;5034722;28;20232;-65
2022/04/09 03:59:19;;;;;;;18.93;4.37;;;;;;;;;;5016396;28;20296;-66
2022/04/09 04:01:47;;;;;;;12.77;3.80;;;;;;;;;;5034409;28;20191;-66
2022/04/09 04:04:13;;;;;;;13.53;4.00;;;;;;;;;;5034250;28;20654;-65
2022/04/09 04:06:40;;;;;;;14.07;4.03;;;;;;;;;;5034169;28;20175;-65
2022/04/09 04:09:07;;;;;;;10.90;4.17;;;;;;;;;;5035507;28;20693;-65
2022/04/09 04:11:33;;;;;;;11.93;3.63;;;;;;;;;;5038946;28;20636;-64
2022/04/09 04:13:59;;;;;;;12.67;3.93;;;;;;;;;;5039126;28;20645;-65
2022/04/09 04:16:25;;;;;;;12.77;4.40;;;;;;;;;;5038603;28;20179;-65
2022/04/09 04:18:51;;;;;;;16.27;3.60;;;;;;;;;;5038025;28;20195;-64
2022/04/09 04:21:17;;;;;;;15.73;4.30;;;;;;;;;;5020634;28;20182;-66
2022/04/09 04:23:43;;;;;;;18.03;4.27;;;;;;;;;;5038410;28;20179;-65
2022/04/09 04:26:09;;;;;;;13.47;4.00;;;;;;;;;;5020207;28;20418;-65
2022/04/09 04:28:35;;;;;;;15.93;4.50;;;;;;;;;;5038451;28;20198;-66
2022/04/09 04:31:01;;;;;;;14.97;4.07;;;;;;;;;;5020460;28;20555;-65
2022/04/09 04:33:27;;;;;;;17.73;4.00;;;;;;;;;;5020221;28;20590;-65
2022/04/09 04:35:53;;;;;;;15.10;4.00;;;;;;;;;;5037918;28;20752;-65
2022/04/09 04:38:19;;;;;;;14.80;4.83;;;;;;;;;;5019981;28;20207;-65
2022/04/09 04:40:45;;;;;;;13.33;4.00;;;;;;;;;;5037765;28;20179;-65
2022/04/09 04:43:11;;;;;;;15.67;3.93;;;;;;;;;;5038469;28;20548;-65
2022/04/09 04:45:37;;;;;;;14.73;4.23;;;;;;;;;;5038543;28;20183;-65
2022/04/09 04:48:03;;;;;;;16.23;5.30;;;;;;;;;;5038448;28;20209;-65
2022/04/09 04:50:29;;;;;;;13.13;3.77;;;;;;;;;;5038533;28;20668;-65
2022/04/09 04:52:55;;;;;;;15.20;4.10;;;;;;;;;;5037935;28;20316;-65
2022/04/09 04:55:22;;;;;;;11.27;3.23;;;;;;;;;;5037764;28;20280;-67
2022/04/09 04:57:51;;;;;;;20.10;4.13;;;;;;;;;;5037640;28;20317;-65
2022/04/09 05:00:19;;;;;;;14.10;4.27;;;;;;;;;;5038322;28;20167;-64
2022/04/09 05:02:45;;;;;;;11.40;3.80;;;;;;;;;;5037891;28;20662;-64
2022/04/09 05:05:11;;;;;;;12.47;3.83;;;;;;;;;;5038100;28;20187;-64
2022/04/09 05:07:38;;;;;;;11.27;4.20;;;;;;;;;;5038304;28;20182;-64
2022/04/09 05:10:05;;;;;;;15.60;3.80;;;;;;;;;;5038116;28;20179;-65
2022/04/09 05:12:32;;;;;;;13.50;3.93;;;;;;;;;;5037646;28;20218;-66
2022/04/09 05:14:58;;;;;;;15.90;4.10;;;;;;;;;;5037972;28;20175;-64
2022/04/09 05:17:24;;;;;;;9.30;3.60;;;;;;;;;;5037439;28;20658;-66
2022/04/09 05:19:50;;;;;;;13.03;3.70;;;;;;;;;;5037364;28;20678;-65
2022/04/09 05:22:16;;;;;;;13.40;3.80;;;;;;;;;;5019256;28;20581;-66
2022/04/09 05:24:42;;;;;;;11.63;3.53;;;;;;;;;;5037576;28;20448;-65
2022/04/09 05:27:08;;;;;;;13.33;3.37;;;;;;;;;;5037336;28;20183;-65
2022/04/09 05:29:34;;;;;;;7.30;3.00;;;;;;;;;;5019167;28;20698;-65
2022/04/09 05:32:00;;;;;;;15.57;3.53;;;;;;;;;;5019995;28;20213;-65
2022/04/09 05:34:26;;;;;;;9.70;3.70;;;;;;;;;;5037263;28;20254;-68
2022/04/09 05:36:52;;;;;;;10.90;3.80;;;;;;;;;;5019879;28;20179;-66
2022/04/09 05:39:18;;;;;;;9.97;4.10;;;;;;;;;;5019574;28;20199;-64
2022/04/09 05:41:44;;;;;;;20.73;7.33;;;;;;;;;;5037217;28;20564;-64
2022/04/09 05:44:10;;;;;;;14.47;4.87;;;;;;;;;;5019498;28;20183;-65
2022/04/09 05:46:36;;;;;;;12.50;4.40;;;;;;;;;;5037005;28;20186;-66
2022/04/09 05:49:03;;;;;;;17.00;4.67;;;;;;;;;;5019142;28;20572;-66
2022/04/09 05:51:30;;;;;;;10.40;3.13;;;;;;;;;;5019217;28;20214;-65
2022/04/09 05:53:55;;;;;;;11.37;3.77;;;;;;;;;;5036663;28;20683;-66
2022/04/09 05:56:22;;;;;;;14.70;4.47;;;;;;;;;;5018755;28;20264;-65
2022/04/09 05:58:48;;;;;;;8.73;4.00;;;;;;;;;;5036798;28;20221;-66
2022/04/09 06:01:14;;;;;;;11.63;3.83;;;;;;;;;;5036812;28;20183;-65
2022/04/09 06:03:40;;;;;;;11.70;3.63;;;;;;;;;;5018742;28;20256;-65
2022/04/09 06:06:06;;;;;;;14.47;4.03;;;;;;;;;;5018989;28;20183;-65
2022/04/09 06:08:33;;;;;;;14.53;3.90;;;;;;;;;;5036836;28;20630;-64
2022/04/09 06:10:59;;;;;;;16.87;3.87;;;;;;;;;;5018749;28;20187;-64
2022/04/09 06:13:25;;;;;;;12.93;3.20;;;;;;;;;;5037011;28;20253;-65
2022/04/09 06:15:51;;;;;;;10.33;3.23;;;;;;;;;;5036286;28;20225;-64
2022/04/09 06:18:17;;;;;;;11.83;3.70;;;;;;;;;;5036321;28;20291;-65
2022/04/09 06:20:43;;;;;;;12.77;3.83;;;;;;;;;;5037027;28;20210;-65
2022/04/09 06:23:09;;;;;;;15.13;3.80;;;;;;;;;;5018542;28;20191;-65
2022/04/09 06:25:35;;;;;;;14.63;3.53;;;;;;;;;;5017525;28;20189;-65
2022/04/09 06:28:01;;;;;;;12.27;3.50;;;;;;;;;;5034836;28;20199;-65
2022/04/09 06:30:28;;;;;;;15.57;3.73;;;;;;;;;;5034990;28;20194;-66
2022/04/09 06:32:54;;;;;;;10.30;3.37;;;;;;;;;;5034633;28;20214;-65
2022/04/09 06:35:20;;;;;;;19.57;4.47;;;;;;;;;;5017055;28;20183;-66
2022/04/09 06:37:46;;;;;;;12.87;3.37;;;;;;;;;;5016863;28;20183;-66
2022/04/09 06:40:13;;;;;;;12.63;4.07;;;;;;;;;;5017144;28;20270;-65
2022/04/09 06:42:42;;;;;;;11.63;3.60;;;;;;;;;;5017261;28;20571;-65
2022/04/09 06:45:09;;;;;;;16.70;3.73;;;;;;;;;;5036118;28;20179;-65
2022/04/09 06:47:38;;;;;;;13.60;3.83;;;;;;;;;;5035966;28;20190;-65
2022/04/09 06:50:11;;;;;;;11.93;3.40;;;;;;;;;;5018038;28;20257;-66
2022/04/09 06:52:39;;;;;;;9.50;3.20;;;;;;;;;;5035626;28;20209;-65
2022/04/09 06:55:11;;;;;;;12.30;3.40;;;;;;;;;;5035215;28;20214;-65
2022/04/09 06:57:38;;;;;;;7.97;2.60;;;;;;;;;;5017187;28;20202;-65
2022/04/09 07:00:06;;;;;;;9.67;3.67;;;;;;;;;;5035496;28;20199;-65
2022/04/09 07:02:32;;;;;;;14.40;3.83;;;;;;;;;;5034170;28;20556;-66
2022/04/09 07:04:58;;;;;;;18.00;3.67;;;;;;;;;;5016747;28;20186;-64
2022/04/09 07:07:24;;;;;;;6.93;2.77;;;;;;;;;;5016461;28;20183;-66
2022/04/09 07:09:51;;;;;;;10.90;3.40;;;;;;;;;;5034210;28;20575;-66
2022/04/09 07:12:17;;;;;;;8.30;3.43;;;;;;;;;;5016517;28;20302;-65
2022/04/09 07:14:43;;;;;;;14.37;3.47;;;;;;;;;;5034748;28;20182;-66
2022/04/09 07:17:09;;;;;;;8.33;2.70;;;;;;;;;;5016141;28;20194;-65
2022/04/09 07:19:35;;;;;;;9.20;2.80;;;;;;;;;;5033742;28;20199;-65
2022/04/09 07:22:01;;;;;;;14.67;2.87;;;;;;;;;;5033900;28;20186;-66
2022/04/09 07:24:27;;;;;;;14.33;3.43;;;;;;;;;;5034552;28;20262;-65
2022/04/09 07:26:53;;;;;;;10.70;3.33;;;;;;;;;;5017242;28;20229;-63
2022/04/09 07:29:19;;;;;;;10.97;3.17;;;;;;;;;;5035043;28;20290;-65
2022/04/09 07:31:46;;;;;;;8.70;3.23;;;;;;;;;;5035078;28;20206;-65
2022/04/09 07:34:12;;;;;;;12.77;3.60;;;;;;;;;;5017485;28;20602;-65
2022/04/09 07:36:38;;;;;;;12.20;3.23;;;;;;;;;;5017249;28;20179;-64
2022/04/09 07:39:06;;;;;;;12.63;3.53;;;;;;;;;;5034926;28;20545;-63
2022/04/09 07:41:32;;;;;;;11.10;3.87;;;;;;;;;;5035205;28;20178;-64
2022/04/09 07:43:58;;;;;;;12.13;4.20;;;;;;;;;;5016574;28;20183;-63
2022/04/09 07:46:24;;;;;;;18.37;3.83;;;;;;;;;;5035272;28;20175;-62
2022/04/09 07:48:50;;;;;;;13.43;4.23;;;;;;;;;;5017297;28;20206;-63
2022/04/09 07:51:16;;;;;;;11.80;3.50;;;;;;;;;;5035213;28;20183;-64
2022/04/09 07:53:42;;;;;;;13.97;3.87;;;;;;;;;;5034779;28;20628;-63
2022/04/09 07:56:08;;;;;;;14.87;3.67;;;;;;;;;;5034109;28;20182;-66
2022/04/09 07:58:34;;;;;;;15.10;3.77;;;;;;;;;;5033626;28;20218;-65
2022/04/09 08:01:00;;;;;;;14.83;4.17;;;;;;;;;;5033547;28;20635;-65
2022/04/09 08:03:26;;;;;;;11.43;4.47;;;;;;;;;;5033451;28;20183;-64
2022/04/09 08:05:52;;;;;;;7.93;2.97;;;;;;;;;;5033231;28;20179;-65
2022/04/09 08:08:18;;;;;;;9.87;3.10;;;;;;;;;;5033959;28;20290;-65
2022/04/09 08:10:44;;;;;;;11.43;3.87;;;;;;;;;;5033320;28;20209;-66
2022/04/09 08:13:10;;;;;;;10.70;3.37;;;;;;;;;;5015282;28;20754;-64
2022/04/09 08:15:37;;;;;;;13.13;3.33;;;;;;;;;;5015370;28;20179;-65
2022/04/09 08:18:03;;;;;;;7.90;3.33;;;;;;;;;;5015203;28;20686;-65
2022/04/09 08:20:30;;;;;;;11.70;3.20;;;;;;;;;;5015353;28;20688;-65
2022/04/09 08:22:56;;;;;;;18.40;3.43;;;;;;;;;;5015365;28;20183;-66
2022/04/09 08:25:22;;;;;;;10.30;2.50;;;;;;;;;;5033096;28;20552;-65
2022/04/09 08:27:52;;;;;;;7.57;3.13;;;;;;;;;;5032896;28;20211;-65
2022/04/09 08:30:18;;;;;;;4.97;2.10;;;;;;;;;;5033319;28;20178;-65
2022/04/09 08:32:44;;;;;;;4.00;1.50;;;;;;;;;;5032961;28;20289;-66
2022/04/09 08:35:10;;;;;;;2.50;1.40;;;;;;;;;;5033189;28;20250;-63
2022/04/09 08:37:36;;;;;;;2.37;1.33;;;;;;;;;;5032869;28;20695;-65
2022/04/09 08:40:03;;;;;;;1.33;1.17;;;;;;;;;;5032871;28;20286;-65
2022/04/09 08:42:31;;;;;;;3.60;1.40;;;;;;;;;;5033103;28;20187;-66
2022/04/09 08:44:59;;;;;;;2.53;1.33;;;;;;;;;;5032828;28;20257;-65
2022/04/09 08:47:28;;;;;;;2.60;1.20;;;;;;;;;;5015014;28;20175;-66
2022/04/09 08:49:54;;;;;;;1.43;1.30;;;;;;;;;;5032523;28;20694;-65
2022/04/09 08:52:20;;;;;;;2.93;1.50;;;;;;;;;;5032862;28;20206;-65
2022/04/09 08:54:47;;;;;;;4.20;1.50;;;;;;;;;;5015816;28;20184;-65
2022/04/09 08:57:13;;;;;;;2.80;1.43;;;;;;;;;;5019239;28;20554;-65
2022/04/09 08:59:39;;;;;;;2.93;1.50;;;;;;;;;;5036294;28;20214;-64
2022/04/09 09:02:05;;;;;;;4.60;1.70;;;;;;;;;;5036664;28;20538;-64
2022/04/09 09:04:31;;;;;;;4.57;1.77;;;;;;;;;;5036629;28;20195;-66
2022/04/09 09:07:15;;;;;;;3.53;1.63;;;;;;;;;;5036267;28;20175;-65
2022/04/09 09:09:41;;;;;;;6.47;1.93;;;;;;;;;;5036372;28;20679;-65
2022/04/09 09:12:07;;;;;;;4.70;1.80;;;;;;;;;;5036409;28;20232;-64
2022/04/09 09:14:34;;;;;;;2.37;1.50;;;;;;;;;;5018380;28;20266;-65
2022/04/09 09:17:01;;;;;;;2.00;1.20;;;;;;;;;;5018520;28;20186;-67
2022/04/09 09:19:45;;;;;;;1.60;1.30;;;;;;;;;;5036191;28;20258;-65
2022/04/09 09:22:11;;;;;;;3.43;2.00;;;;;;;;;;5035887;28;20199;-64
2022/04/09 09:24:37;;;;;;;1.40;1.30;;;;;;;;;;5018394;28;20661;-66
2022/04/09 09:27:03;;;;;;;2.17;1.63;;;;;;;;;;5036115;28;20264;-68
2022/04/09 09:29:30;;;;;;;3.67;1.83;;;;;;;;;;5035815;28;20199;-66
2022/04/09 09:31:58;;;;;;;3.30;2.00;;;;;;;;;;5035739;28;20203;-66
2022/04/09 09:34:24;;;;;;;2.30;1.83;;;;;;;;;;5036168;28;20206;-67
2022/04/09 09:36:50;;;;;;;2.87;1.93;;;;;;;;;;5018918;28;20618;-66
2022/04/09 09:39:24;;;;;;;3.60;1.80;;;;;;;;;;5035758;28;20281;-65
2022/04/09 09:41:53;;;;;;;3.27;2.00;;;;;;;;;;5037265;28;20171;-67
2022/04/09 09:44:20;;;;;;;3.33;2.13;;;;;;;;;;5035624;28;20183;-67
2022/04/09 09:46:49;;;;;;;6.33;2.20;;;;;;;;;;5035710;28;20183;-67
2022/04/09 09:49:15;;;;;;;5.67;2.73;;;;;;;;;;5018525;28;20206;-68
2022/04/09 09:51:42;;;;;;;5.77;3.17;;;;;;;;;;5036468;28;20211;-66
2022/04/09 09:54:10;;;;;;;4.23;2.57;;;;;;;;;;5036607;28;20229;-68
2022/04/09 09:56:41;;;;;;;9.83;2.77;;;;;;;;;;5035877;28;20223;-67
2022/04/09 09:59:08;;;;;;;7.93;2.97;;;;;;;;;;5018149;28;20309;-67
2022/04/09 10:01:38;;;;;;;7.67;2.47;;;;;;;;;;5035432;28;20179;-67
2022/04/09 10:04:04;;;;;;;4.30;2.80;;;;;;;;;;5035917;28;20317;-68
2022/04/09 10:06:32;;;;;;;5.13;2.33;;;;;;;;;;5034925;28;20191;-69
2022/04/09 10:08:58;;;;;;;8.77;3.10;;;;;;;;;;5035249;28;20202;-67
2022/04/09 10:11:24;;;;;;;4.43;2.10;;;;;;;;;;5035198;28;20651;-67
2022/04/09 10:13:52;;;;;;;5.93;3.10;;;;;;;;;;5017385;28;20723;-66
2022/04/09 10:16:18;;;;;;;7.17;2.80;;;;;;;;;;5017334;28;20179;-66
2022/04/09 10:18:48;;;;;;;7.83;2.97;;;;;;;;;;5035329;28;20195;-66
2022/04/09 10:21:15;;;;;;;3.70;2.27;;;;;;;;;;5035042;28;20583;-66
2022/04/09 10:23:41;;;;;;;4.40;2.13;;;;;;;;;;5017288;28;20182;-65
2022/04/09 10:26:08;;;;;;;5.90;2.40;;;;;;;;;;5035098;28;20187;-66
2022/04/09 10:28:36;;;;;;;4.47;2.00;;;;;;;;;;5034970;28;20210;-66
2022/04/09 10:31:03;;;;;;;4.43;2.83;;;;;;;;;;5035085;28;20171;-64
2022/04/09 10:33:33;;;;;;;2.47;1.67;;;;;;;;;;5035218;28;20298;-65
2022/04/09 10:36:03;;;;;;;2.53;1.30;;;;;;;;;;5035596;28;20164;-66
2022/04/09 10:38:29;;;;;;;3.53;1.30;;;;;;;;;;5035949;28;20195;-66
2022/04/09 10:40:55;;;;;;;1.73;1.37;;;;;;;;;;5035447;28;20190;-66
2022/04/09 10:43:28;;;;;;;4.67;1.47;;;;;;;;;;5017027;28;20610;-67
2022/04/09 10:46:05;;;;;;;6.20;1.50;;;;;;;;;;5034768;28;20216;-66
2022/04/09 10:48:34;;;;;;;4.00;1.80;;;;;;;;;;5035163;28;20199;-65
2022/04/09 10:51:05;;;;;;;4.03;1.80;;;;;;;;;;5035699;28;20214;-66
2022/04/09 10:53:31;;;;;;;4.23;2.03;;;;;;;;;;5035462;28;20205;-66
2022/04/09 10:56:12;;;;;;;1.70;1.50;;;;;;;;;;5034361;28;20186;-66
2022/04/09 10:58:57;;;;;;;5.07;1.90;;;;;;;;;;5034794;28;20207;-66
2022/04/09 11:01:42;;;;;;;4.27;1.80;;;;;;;;;;5016937;28;20176;-65
2022/04/09 11:04:43;;;;;;;7.90;1.60;;;;;;;;;;5034865;28;20634;-67
2022/04/09 11:07:22;;;;;;;7.80;1.77;;;;;;;;;;4957705;28;20760;-66
2022/04/09 11:09:49;;;;;;;5.37;2.20;;;;;;;;;;5027275;28;20297;-66
2022/04/09 11:12:18;;;;;;;2.40;2.03;;;;;;;;;;5034052;28;20207;-64
2022/04/09 11:14:49;;;;;;;3.60;1.93;;;;;;;;;;5034107;28;20571;-64
2022/04/09 11:17:18;;;;;;;5.23;1.70;;;;;;;;;;5034494;28;20611;-65
2022/04/09 11:19:44;;;;;;;4.50;1.70;;;;;;;;;;5033740;28;20195;-66
2022/04/09 11:22:10;;;;;;;5.60;1.90;;;;;;;;;;5034550;28;20241;-67
2022/04/09 11:24:36;;;;;;;5.13;1.90;;;;;;;;;;5034225;28;20186;-65
2022/04/09 11:27:02;;;;;;;5.03;1.90;;;;;;;;;;5034602;28;20179;-66
2022/04/09 11:29:39;;;;;;;4.83;1.90;;;;;;;;;;5034465;28;20226;-67
2022/04/09 11:32:06;;;;;;;5.50;1.90;;;;;;;;;;5034284;28;20678;-65
2022/04/09 11:34:51;;;;;;;3.10;1.90;;;;;;;;;;5034395;28;20179;-65
2022/04/09 11:37:17;;;;;;;3.97;1.80;;;;;;;;;;5034251;28;20172;-65
2022/04/09 11:39:44;;;;;;;5.23;2.10;;;;;;;;;;5034052;28;20201;-66
2022/04/09 11:42:11;;;;;;;2.83;1.60;;;;;;;;;;5034182;28;20258;-66
2022/04/09 11:44:40;;;;;;;4.33;1.87;;;;;;;;;;5034290;28;20698;-65
2022/04/09 11:47:10;;;;;;;4.97;2.00;;;;;;;;;;5016256;28;20211;-66
2022/04/09 11:49:36;;;;;;;7.63;2.10;;;;;;;;;;5033809;28;20206;-66
2022/04/09 11:52:03;;;;;;;3.67;1.70;;;;;;;;;;5033603;28;20245;-64
2022/04/09 11:54:32;;;;;;;5.23;1.80;;;;;;;;;;5033506;28;20284;-65
2022/04/09 11:56:58;;;;;;;6.00;1.83;;;;;;;;;;5015955;28;20535;-64
2022/04/09 11:59:24;;;;;;;5.30;1.80;;;;;;;;;;5033576;28;20705;-65
2022/04/09 12:01:53;;;;;;;3.17;1.80;;;;;;;;;;5015849;28;20191;-65
2022/04/09 12:04:23;;;;;;;3.53;1.90;;;;;;;;;;5033527;28;20179;-68
2022/04/09 12:06:49;;;;;;;3.77;2.03;;;;;;;;;;5033687;28;20185;-65
2022/04/09 12:09:15;;;;;;;7.20;1.90;;;;;;;;;;5033432;28;20198;-66
2022/04/09 12:11:54;;;;;;;6.53;2.20;;;;;;;;;;5015668;28;20214;-65
2022/04/09 12:14:20;;;;;;;4.07;1.70;;;;;;;;;;5015750;28;20183;-65
2022/04/09 12:16:47;;;;;;;4.87;2.73;;;;;;;;;;5033371;28;20562;-65
2022/04/09 12:19:13;;;;;;;4.07;2.20;;;;;;;;;;5033311;28;20255;-67
2022/04/09 12:21:39;;;;;;;3.47;1.80;;;;;;;;;;5033734;28;20262;-64
2022/04/09 12:24:05;;;;;;;4.73;2.20;;;;;;;;;;5015829;28;20187;-65
2022/04/09 12:26:32;;;;;;;4.40;1.73;;;;;;;;;;5033269;28;20175;-66
2022/04/09 12:29:19;;;;;;;6.00;1.87;;;;;;;;;;5033213;28;20223;-65
2022/04/09 12:31:48;;;;;;;5.47;1.97;;;;;;;;;;5037231;28;20325;-64
2022/04/09 12:34:14;;;;;;;6.27;2.10;;;;;;;;;;5019274;28;20313;-65
2022/04/09 12:37:04;;;;;;;3.43;1.70;;;;;;;;;;5037379;28;20187;-64
2022/04/09 12:39:30;;;;;;;3.57;1.90;;;;;;;;;;5019252;28;20257;-65
2022/04/09 12:41:56;;;;;;;3.53;1.97;;;;;;;;;;5019502;28;20528;-66
2022/04/09 12:44:26;;;;;;;2.97;1.80;;;;;;;;;;5037535;28;20180;-65
2022/04/09 12:46:53;;;;;;;6.17;2.13;;;;;;;;;;5037166;28;20179;-64
2022/04/09 12:49:19;;;;;;;4.30;2.10;;;;;;;;;;5036662;28;20624;-65
2022/04/09 12:51:46;;;;;;;3.90;1.93;;;;;;;;;;5019032;28;20272;-65
2022/04/09 12:54:12;;;;;;;3.97;1.93;;;;;;;;;;5036921;28;20639;-65
2022/04/09 12:56:39;;;;;;;4.87;1.90;;;;;;;;;;5018976;28;20182;-65
2022/04/09 12:59:05;;;;;;;3.43;1.60;;;;;;;;;;5036569;28;20206;-65
2022/04/09 13:01:31;;;;;;;3.23;2.00;;;;;;;;;;5036592;28;20274;-65
2022/04/09 13:03:57;;;;;;;3.20;1.60;;;;;;;;;;5018999;28;20179;-65
2022/04/09 13:06:23;;;;;;;5.07;1.70;;;;;;;;;;5018736;28;20223;-65
2022/04/09 13:08:49;;;;;;;5.03;1.87;;;;;;;;;;5036668;28;20201;-65
2022/04/09 13:11:15;;;;;;;2.37;1.47;;;;;;;;;;5018646;28;20617;-65
2022/04/09 13:13:42;;;;;;;5.30;1.70;;;;;;;;;;5036074;28;20214;-66
2022/04/09 13:16:08;;;;;;;3.00;2.07;;;;;;;;;;5036296;28;20685;-65
2022/04/09 13:18:34;;;;;;;3.60;1.37;;;;;;;;;;5036485;28;20191;-66
2022/04/09 13:21:00;;;;;;;1.57;1.40;;;;;;;;;;5036283;28;20171;-66
2022/04/09 13:23:26;;;;;;;1.53;1.20;;;;;;;;;;5037893;28;20191;-66
2022/04/09 13:25:53;;;;;;;2.50;1.57;;;;;;;;;;5020026;28;20183;-64
2022/04/09 13:28:19;;;;;;;1.67;1.50;;;;;;;;;;5037541;28;20286;-64
2022/04/09 13:30:45;;;;;;;2.70;1.50;;;;;;;;;;5037357;28;20314;-68
2022/04/09 13:33:11;;;;;;;2.90;1.60;;;;;;;;;;5037439;28;20651;-63
2022/04/09 13:35:37;;;;;;;3.43;1.90;;;;;;;;;;5037413;28;20199;-64
2022/04/09 13:38:03;;;;;;;3.27;1.90;;;;;;;;;;5037006;28;20171;-64
2022/04/09 13:40:29;;;;;;;3.27;2.27;;;;;;;;;;5036295;28;20258;-64
2022/04/09 13:42:55;;;;;;;4.03;2.30;;;;;;;;;;5017913;28;20547;-66
2022/04/09 13:45:21;;;;;;;6.70;2.00;;;;;;;;;;5036157;28;20198;-66
2022/04/09 13:47:47;;;;;;;4.73;2.03;;;;;;;;;;5035654;28;20176;-64
2022/04/09 13:50:15;;;;;;;4.03;1.80;;;;;;;;;;5018009;28;20669;-66
2022/04/09 13:52:41;;;;;;;5.50;2.07;;;;;;;;;;5035521;28;20199;-66
2022/04/09 13:55:07;;;;;;;6.20;2.30;;;;;;;;;;5035460;28;20179;-65
2022/04/09 13:57:33;;;;;;;4.70;1.87;;;;;;;;;;5036008;28;20225;-64
2022/04/09 14:00:02;;;;;;;7.60;2.33;;;;;;;;;;5035288;28;20218;-66
2022/04/09 14:02:30;;;;;;;4.53;1.80;;;;;;;;;;5035387;28;20180;-66
2022/04/09 14:04:58;;;;;;;4.47;2.57;;;;;;;;;;5035882;28;20549;-65
2022/04/09 14:07:25;;;;;;;3.53;1.63;;;;;;;;;;5035391;28;20701;-65
2022/04/09 14:09:51;;;;;;;6.20;2.00;;;;;;;;;;5035284;28;20278;-64
2022/04/09 14:12:17;;;;;;;3.10;1.60;;;;;;;;;;5035223;28;20238;-64
2022/04/09 14:14:43;;;;;;;4.10;1.80;;;;;;;;;;5035294;28;20189;-66
2022/04/09 14:17:09;;;;;;;3.77;1.97;;;;;;;;;;5035443;28;20742;-64
2022/04/09 14:19:35;;;;;;;4.13;1.77;;;;;;;;;;5035034;28;20234;-64
2022/04/09 14:22:01;;;;;;;2.23;1.60;;;;;;;;;;5017601;28;20183;-65
2022/04/09 14:24:27;;;;;;;2.60;1.47;;;;;;;;;;5035457;28;20180;-64
2022/04/09 14:26:53;;;;;;;2.93;2.00;;;;;;;;;;5035062;28;20237;-64
2022/04/09 14:29:19;;;;;;;4.23;1.93;;;;;;;;;;5035070;28;20222;-64
2022/04/09 14:31:45;;;;;;;4.57;2.07;;;;;;;;;;5017059;28;20278;-65
2022/04/09 14:34:11;;;;;;;3.60;1.77;;;;;;;;;;5035143;28;20250;-65